Time;durP1;ratioP1;P1;durP2;ratioP2;P2;SDS_P1;SDS_P2;PMS_P1;PMS_P2;Temp;Humidity;BMP_temperature;BMP_pressure;BME280_temperature;BME280_humidity;BME280_pressure;Samples;Min_cycle;Max_cycle;Signal;HPM_P1;HPM_P2
2021/07/12 00:05:43;;;;;;;7.3;5.1;;;;;;;16.16;100;98514.52;;;;
2021/07/12 00:15:43;;;;;;;6.8;4.3;;;;;;;15.99;100;98510.16;;;;
2021/07/12 00:25:42;;;;;;;6.1;3.7;;;;;;;15.95;100;98495.67;;;;
2021/07/12 00:35:42;;;;;;;7.3;4.8;;;;;;;15.84;100;98489.13;;;;
2021/07/12 00:45:41;;;;;;;5.7;3.8;;;;;;;15.69;100;98497.22;;;;
2021/07/12 00:55:41;;;;;;;8.3;4.4;;;;;;;15.6;100;98497.33;;;;
2021/07/12 01:05:40;;;;;;;7.3;3.7;;;;;;;15.5;100;98495.88;;;;
2021/07/12 01:15:40;;;;;;;8.7;4.2;;;;;;;15.31;100;98501.06;;;;
2021/07/12 01:26:06;;;;;;;6.6;4.5;;;;;;;15.45;100;98504.22;;;;
2021/07/12 01:35:43;;;;;;;5.9;3;;;;;;;15.45;100;98482.48;;;;
2021/07/12 01:45:42;;;;;;;6.7;3.7;;;;;;;15.49;100;98488.06;;;;
2021/07/12 01:55:43;;;;;;;7.1;4.7;;;;;;;15.63;100;98479.55;;;;
2021/07/12 02:05:40;;;;;;;6.1;3.4;;;;;;;15.68;100;98487.48;;;;
2021/07/12 02:15:36;;;;;;;7.4;4.2;;;;;;;15.64;100;98476.5;;;;
2021/07/12 02:25:36;;;;;;;8;5.3;;;;;;;15.61;100;98479.91;;;;
2021/07/12 02:35:35;;;;;;;7.2;4.2;;;;;;;15.46;100;98464.27;;;;
2021/07/12 02:45:36;;;;;;;9.9;5.7;;;;;;;15.29;100;98488.96;;;;
2021/07/12 02:55:34;;;;;;;6.6;3.6;;;;;;;15.37;100;98490.78;;;;
2021/07/12 03:05:34;;;;;;;7.3;5;;;;;;;15.41;100;98487.02;;;;
2021/07/12 03:15:38;;;;;;;6.7;4.4;;;;;;;15.42;100;98504.11;;;;
2021/07/12 03:25:36;;;;;;;9.3;5.1;;;;;;;15.68;100;98492.91;;;;
2021/07/12 03:35:36;;;;;;;6.1;3.8;;;;;;;15.86;100;98481.41;;;;
2021/07/12 03:45:34;;;;;;;7.2;3.9;;;;;;;16.1;100;98494.92;;;;
2021/07/12 03:55:31;;;;;;;7.6;3;;;;;;;16.34;100;98494.05;;;;
2021/07/12 04:05:31;;;;;;;6.8;3.8;;;;;;;16.6;100;98488.15;;;;
2021/07/12 04:15:31;;;;;;;7;3.7;;;;;;;16.68;100;98494.57;;;;
2021/07/12 04:25:30;;;;;;;8.3;5.1;;;;;;;16.68;100;98527.23;;;;
2021/07/12 04:35:30;;;;;;;8.6;5;;;;;;;16.92;100;98516.98;;;;
2021/07/12 04:45:30;;;;;;;10.8;5.9;;;;;;;17.35;100;98523.48;;;;
2021/07/12 04:55:29;;;;;;;8.2;5.2;;;;;;;17.65;100;98524.6;;;;
2021/07/12 05:05:29;;;;;;;10.6;4.9;;;;;;;18.18;100;98508.59;;;;
2021/07/12 05:15:29;;;;;;;8.4;5.5;;;;;;;18.42;100;98497.38;;;;
2021/07/12 05:25:29;;;;;;;13.6;7;;;;;;;18.81;100;98496.17;;;;
2021/07/12 05:35:29;;;;;;;12.4;8.6;;;;;;;19.16;100;98508.88;;;;
2021/07/12 05:45:29;;;;;;;8.6;5.8;;;;;;;19.72;100;98523.42;;;;
2021/07/12 05:55:29;;;;;;;12;7;;;;;;;20.44;100;98509.54;;;;
2021/07/12 06:05:30;;;;;;;10.2;6.3;;;;;;;20.97;100;98516.33;;;;
2021/07/12 06:15:30;;;;;;;9.5;7.2;;;;;;;21.48;100;98501.91;;;;
2021/07/12 06:25:30;;;;;;;16.5;8.7;;;;;;;22;100;98500.67;;;;
2021/07/12 06:35:31;;;;;;;10.1;9;;;;;;;22.3;100;98514.91;;;;
2021/07/12 06:45:31;;;;;;;12.7;8.9;;;;;;;22.85;100;98518.23;;;;
2021/07/12 06:55:32;;;;;;;8.2;6;;;;;;;22.98;100;98522.17;;;;
2021/07/12 07:05:34;;;;;;;7.3;6.1;;;;;;;23.49;100;98521.84;;;;
2021/07/12 07:15:34;;;;;;;9.5;5.9;;;;;;;22.93;100;98528.07;;;;
2021/07/12 07:25:34;;;;;;;16.9;8.6;;;;;;;23.08;100;98537.13;;;;
2021/07/12 07:35:34;;;;;;;9.4;6.2;;;;;;;22.96;100;98541.03;;;;
2021/07/12 07:45:35;;;;;;;9;7.7;;;;;;;23.06;100;98545.75;;;;
2021/07/12 07:55:36;;;;;;;9;6.2;;;;;;;22.68;100;98556.66;;;;
2021/07/12 08:05:36;;;;;;;11.1;7.8;;;;;;;22.41;100;98548.7;;;;
2021/07/12 08:15:37;;;;;;;18.1;8.4;;;;;;;22.03;100;98538.33;;;;
2021/07/12 08:25:37;;;;;;;9.6;6.4;;;;;;;21.82;100;98551.89;;;;
2021/07/12 08:35:38;;;;;;;8.6;6.6;;;;;;;22.13;100;98558.76;;;;
2021/07/12 08:45:38;;;;;;;7.2;5.4;;;;;;;22.35;100;98554.95;;;;
2021/07/12 08:55:39;;;;;;;8.3;5.9;;;;;;;22.8;100;98557.11;;;;
2021/07/12 09:05:52;;;;;;;9.6;6.6;;;;;;;22.74;100;98577.08;;;;
2021/07/12 09:15:40;;;;;;;9.6;7;;;;;;;22.42;100;98618.16;;;;
2021/07/12 09:25:40;;;;;;;8.5;6;;;;;;;22.39;100;98602.42;;;;
2021/07/12 09:35:41;;;;;;;23.8;8.9;;;;;;;22.23;100;98593.72;;;;
2021/07/12 09:45:42;;;;;;;11.2;8.4;;;;;;;22.11;100;98589.33;;;;
2021/07/12 09:55:42;;;;;;;10.8;9;;;;;;;21.45;100;98601.39;;;;
2021/07/12 10:05:44;;;;;;;10.8;8.4;;;;;;;21.35;100;98585.6;;;;
2021/07/12 10:15:43;;;;;;;9.7;7.6;;;;;;;21.19;100;98598.78;;;;
2021/07/12 10:25:43;;;;;;;13.2;10.1;;;;;;;20.99;100;98593.48;;;;
2021/07/12 10:35:43;;;;;;;10.9;8.5;;;;;;;20.75;100;98591.27;;;;
2021/07/12 10:55:44;;;;;;;14.5;10.5;;;;;;;20.91;100;98577.33;;;;
2021/07/12 11:05:44;;;;;;;10.7;9.1;;;;;;;20.67;100;98551.25;;;;
2021/07/12 11:15:46;;;;;;;13.5;6.2;;;;;;;20.49;100;98555.73;;;;
2021/07/12 11:25:45;;;;;;;11.5;6.1;;;;;;;20.07;100;98569.63;;;;
2021/07/12 11:35:45;;;;;;;7.7;5.5;;;;;;;20.06;100;98576.28;;;;
2021/07/12 11:45:45;;;;;;;9.5;6.6;;;;;;;19.62;100;98617.02;;;;
2021/07/12 11:55:45;;;;;;;9.2;7.2;;;;;;;19.55;100;98573.16;;;;
2021/07/12 12:05:45;;;;;;;12.1;8.1;;;;;;;19.6;100;98548.26;;;;
2021/07/12 12:15:46;;;;;;;10.3;7.8;;;;;;;19.49;100;98547.3;;;;
2021/07/12 12:25:46;;;;;;;13.5;9.6;;;;;;;19.22;100;98553.86;;;;
2021/07/12 12:35:46;;;;;;;10.9;7.7;;;;;;;18.88;100;98555.61;;;;
2021/07/12 12:45:46;;;;;;;6.4;4.8;;;;;;;18.59;100;98532.44;;;;
2021/07/12 12:55:46;;;;;;;18.6;6.9;;;;;;;18.56;100;98501.2;;;;
2021/07/12 13:05:46;;;;;;;13.1;5.8;;;;;;;18.54;100;98498.03;;;;
2021/07/12 13:15:46;;;;;;;9;7;;;;;;;18.51;100;98512.41;;;;
2021/07/12 13:25:46;;;;;;;9.4;6.1;;;;;;;18.7;100;98555.28;;;;
2021/07/12 13:35:46;;;;;;;7.7;6;;;;;;;18.54;100;98527.27;;;;
2021/07/12 13:45:46;;;;;;;5.7;3.9;;;;;;;18.62;100;98556.28;;;;
2021/07/12 13:55:46;;;;;;;8.1;5.4;;;;;;;18.22;100;98507.53;;;;
2021/07/12 14:05:46;;;;;;;9.4;3.3;;;;;;;18.21;100;98495.03;;;;
2021/07/12 14:15:46;;;;;;;6.5;4.1;;;;;;;18.4;100;98497.73;;;;
2021/07/12 14:25:46;;;;;;;5.3;3.9;;;;;;;18.63;100;98492.36;;;;
2021/07/12 14:35:46;;;;;;;5.4;4.1;;;;;;;18.85;100;98494.3;;;;
2021/07/12 14:45:46;;;;;;;7.1;4.4;;;;;;;19.06;100;98488.4;;;;
2021/07/12 14:55:46;;;;;;;9.3;4.9;;;;;;;19.17;100;98488.58;;;;
2021/07/12 15:05:46;;;;;;;6.7;3.9;;;;;;;19.24;100;98466.83;;;;
2021/07/12 15:15:46;;;;;;;7;4.1;;;;;;;19.26;100;98456.34;;;;
2021/07/12 15:25:46;;;;;;;5;3.3;;;;;;;19.18;100;98501.88;;;;
2021/07/12 15:35:46;;;;;;;6.5;4.6;;;;;;;18.85;100;98436.16;;;;
2021/07/12 15:45:47;;;;;;;8;4.2;;;;;;;19.26;100;98432.53;;;;
2021/07/12 15:55:47;;;;;;;6.1;4.1;;;;;;;19.8;100;98439.53;;;;
2021/07/12 16:05:47;;;;;;;6.8;3.4;;;;;;;19.62;100;98424.83;;;;
2021/07/12 16:15:47;;;;;;;6.7;4.1;;;;;;;19.38;100;98410.44;;;;
2021/07/12 16:25:47;;;;;;;6.7;4;;;;;;;19.29;100;98399;;;;
2021/07/12 16:35:48;;;;;;;6.8;3.4;;;;;;;19.15;100;98385.14;;;;
2021/07/12 16:45:48;;;;;;;7;3.5;;;;;;;19.28;100;98388.43;;;;
2021/07/12 16:55:48;;;;;;;4.9;2.2;;;;;;;19.12;100;98399.53;;;;
2021/07/12 17:05:48;;;;;;;3.7;2.6;;;;;;;18.99;100;98404.41;;;;
2021/07/12 17:15:48;;;;;;;5.3;2;;;;;;;18.85;100;98400.66;;;;
2021/07/12 17:25:48;;;;;;;6.6;3.6;;;;;;;18.53;100;98364.67;;;;
2021/07/12 17:35:48;;;;;;;6;3.3;;;;;;;18.53;100;98378.31;;;;
2021/07/12 17:45:48;;;;;;;5.4;2.7;;;;;;;18.48;100;98365.72;;;;
2021/07/12 17:55:48;;;;;;;5.7;2.8;;;;;;;18.69;100;98359.85;;;;
2021/07/12 18:05:48;;;;;;;6.5;3.9;;;;;;;19.13;100;98359.32;;;;
2021/07/12 18:15:48;;;;;;;5.6;2.6;;;;;;;18.79;100;98336.59;;;;
2021/07/12 18:25:48;;;;;;;6.2;3.8;;;;;;;18.64;100;98337.55;;;;
2021/07/12 18:35:48;;;;;;;8.7;4.8;;;;;;;18.68;100;98354.74;;;;
2021/07/12 18:45:48;;;;;;;8.4;6.2;;;;;;;18.47;100;98325.93;;;;
2021/07/12 18:55:48;;;;;;;8.1;5.5;;;;;;;18.53;100;98361.94;;;;
2021/07/12 19:05:48;;;;;;;7.4;5.1;;;;;;;18.43;100;98362.52;;;;
2021/07/12 19:15:48;;;;;;;7.6;4.9;;;;;;;18.46;100;98357.13;;;;
2021/07/12 19:25:50;;;;;;;6.8;4.4;;;;;;;18.43;100;98359.8;;;;
2021/07/12 19:35:48;;;;;;;7.2;5.5;;;;;;;18.25;100;98347.78;;;;
2021/07/12 19:45:48;;;;;;;7.7;5.6;;;;;;;18.03;100;98358.31;;;;
2021/07/12 19:55:48;;;;;;;22.3;10.9;;;;;;;17.82;100;98349.72;;;;
2021/07/12 20:05:48;;;;;;;10.3;6.7;;;;;;;17.64;100;98337.69;;;;
2021/07/12 20:15:48;;;;;;;15.1;12.2;;;;;;;17.61;100;98330.23;;;;
2021/07/12 20:25:47;;;;;;;18.5;14.1;;;;;;;17.37;100;98319.59;;;;
2021/07/12 20:35:47;;;;;;;12.1;9.7;;;;;;;17.16;100;98321.87;;;;
2021/07/12 20:45:47;;;;;;;10.5;9.1;;;;;;;17.01;100;98323.48;;;;
2021/07/12 20:55:47;;;;;;;13.2;9.2;;;;;;;16.97;100;98328.09;;;;
2021/07/12 21:05:52;;;;;;;9.9;6.8;;;;;;;16.85;100;98309.93;;;;
2021/07/12 21:15:46;;;;;;;10.2;8.6;;;;;;;16.77;100;98300.02;;;;
2021/07/12 21:25:46;;;;;;;11.3;8;;;;;;;16.68;100;98290.48;;;;
2021/07/12 21:35:46;;;;;;;10.7;8.5;;;;;;;16.52;100;98288.53;;;;
2021/07/12 21:45:46;;;;;;;12.9;8.1;;;;;;;16.42;100;98296.44;;;;
2021/07/12 21:55:45;;;;;;;10.2;7.3;;;;;;;16.5;100;98314.52;;;;
2021/07/12 22:05:45;;;;;;;11.6;8.4;;;;;;;16.46;100;98316.36;;;;
2021/07/12 22:15:45;;;;;;;13;9.7;;;;;;;16.45;100;98334.61;;;;
2021/07/12 22:25:45;;;;;;;13.4;9.6;;;;;;;16.39;100;98335.23;;;;
2021/07/12 22:35:45;;;;;;;12.2;8.6;;;;;;;16.58;100;98338.08;;;;
2021/07/12 22:45:44;;;;;;;8.6;5.9;;;;;;;16.7;100;98324.34;;;;
2021/07/12 22:55:44;;;;;;;8.1;6.2;;;;;;;16.65;100;98326.56;;;;
2021/07/12 23:05:44;;;;;;;10.4;8.1;;;;;;;16.65;100;98330.08;;;;
2021/07/12 23:15:44;;;;;;;13.5;9.6;;;;;;;16.63;100;98328.83;;;;
2021/07/12 23:25:43;;;;;;;13.6;9.4;;;;;;;16.64;100;98317.61;;;;
2021/07/12 23:35:43;;;;;;;13.5;9.6;;;;;;;16.66;100;98301.7;;;;
2021/07/12 23:45:43;;;;;;;18.7;9.8;;;;;;;16.67;100;98292.41;;;;
2021/07/12 23:55:43;;;;;;;13.6;8.7;;;;;;;16.66;100;98287.33;;;;
